sensor_id;sensor_type;location;lat;lon;timestamp;pressure;altitude;pressure_sealevel;temperature;humidity
69223;BME280;56514;51.816;-0.026;2023-03-26T00:01:58;99834.72;;;10.39;65.70
69223;BME280;56514;51.816;-0.026;2023-03-26T00:05:09;99817.31;;;10.36;65.49
69223;BME280;56514;51.816;-0.026;2023-03-26T00:08:15;99818.41;;;10.34;65.68
69223;BME280;56514;51.816;-0.026;2023-03-26T00:11:24;99815.19;;;10.30;65.96
69223;BME280;56514;51.816;-0.026;2023-03-26T00:14:33;99815.56;;;10.26;66.26
69223;BME280;56514;51.816;-0.026;2023-03-26T00:17:43;99800.97;;;10.22;66.26
69223;BME280;56514;51.816;-0.026;2023-03-26T00:20:57;99802.16;;;10.18;66.41
69223;BME280;56514;51.816;-0.026;2023-03-26T00:24:10;99805.03;;;10.15;66.54
69223;BME280;56514;51.816;-0.026;2023-03-26T00:27:22;99795.34;;;10.15;66.49
69223;BME280;56514;51.816;-0.026;2023-03-26T00:30:34;99786.47;;;10.16;66.64
69223;BME280;56514;51.816;-0.026;2023-03-26T00:33:50;99774.97;;;10.17;66.65
69223;BME280;56514;51.816;-0.026;2023-03-26T00:37:04;99771.75;;;10.14;66.90
69223;BME280;56514;51.816;-0.026;2023-03-26T00:40:13;99761.94;;;10.16;66.85
69223;BME280;56514;51.816;-0.026;2023-03-26T00:43:22;99762.75;;;10.16;67.25
69223;BME280;56514;51.816;-0.026;2023-03-26T00:46:34;99753.91;;;10.17;67.27
69223;BME280;56514;51.816;-0.026;2023-03-26T00:49:19;99744.31;;;10.16;67.26
69223;BME280;56514;51.816;-0.026;2023-03-26T00:52:05;99750.28;;;10.18;67.58
69223;BME280;56514;51.816;-0.026;2023-03-26T00:54:52;99736.03;;;10.21;67.04
69223;BME280;56514;51.816;-0.026;2023-03-26T00:57:38;99733.13;;;10.24;67.29
69223;BME280;56514;51.816;-0.026;2023-03-26T01:00:32;99728.72;;;10.24;67.42
69223;BME280;56514;51.816;-0.026;2023-03-26T01:03:19;99725.22;;;10.24;67.41
69223;BME280;56514;51.816;-0.026;2023-03-26T01:06:07;99727.84;;;10.24;67.33
69223;BME280;56514;51.816;-0.026;2023-03-26T01:08:53;99719.81;;;10.25;67.73
69223;BME280;56514;51.816;-0.026;2023-03-26T01:11:44;99712.78;;;10.26;67.47
69223;BME280;56514;51.816;-0.026;2023-03-26T01:14:29;99710.00;;;10.27;67.73
69223;BME280;56514;51.816;-0.026;2023-03-26T01:17:14;99707.84;;;10.32;67.63
69223;BME280;56514;51.816;-0.026;2023-03-26T01:23:02;99690.53;;;10.39;67.45
69223;BME280;56514;51.816;-0.026;2023-03-26T01:25:59;99704.31;;;10.43;67.54
69223;BME280;56514;51.816;-0.026;2023-03-26T01:28:46;99696.28;;;10.44;67.49
69223;BME280;56514;51.816;-0.026;2023-03-26T01:31:49;99692.53;;;10.47;67.73
69223;BME280;56514;51.816;-0.026;2023-03-26T01:34:50;99686.06;;;10.51;67.39
69223;BME280;56514;51.816;-0.026;2023-03-26T01:44:26;99673.00;;;10.49;67.52
69223;BME280;56514;51.816;-0.026;2023-03-26T01:47:15;99664.50;;;10.46;67.47
69223;BME280;56514;51.816;-0.026;2023-03-26T01:50:01;99660.06;;;10.46;67.61
69223;BME280;56514;51.816;-0.026;2023-03-26T01:52:46;99653.09;;;10.45;67.78
69223;BME280;56514;51.816;-0.026;2023-03-26T01:58:35;99647.56;;;10.48;67.73
69223;BME280;56514;51.816;-0.026;2023-03-26T02:01:29;99646.38;;;10.52;67.86
69223;BME280;56514;51.816;-0.026;2023-03-26T02:07:38;99626.94;;;10.53;68.17
69223;BME280;56514;51.816;-0.026;2023-03-26T02:10:27;99624.16;;;10.55;68.38
69223;BME280;56514;51.816;-0.026;2023-03-26T02:13:13;99616.00;;;10.58;68.08
69223;BME280;56514;51.816;-0.026;2023-03-26T02:16:02;99604.59;;;10.57;68.42
69223;BME280;56514;51.816;-0.026;2023-03-26T02:18:48;99602.81;;;10.58;68.58
69223;BME280;56514;51.816;-0.026;2023-03-26T02:21:42;99595.88;;;10.57;68.68
69223;BME280;56514;51.816;-0.026;2023-03-26T02:24:27;99595.03;;;10.56;68.97
69223;BME280;56514;51.816;-0.026;2023-03-26T02:27:11;99591.56;;;10.56;69.07
69223;BME280;56514;51.816;-0.026;2023-03-26T02:29:57;99588.09;;;10.55;69.00
69223;BME280;56514;51.816;-0.026;2023-03-26T02:32:42;99581.84;;;10.56;69.14
69223;BME280;56514;51.816;-0.026;2023-03-26T02:35:27;99578.38;;;10.56;69.13
69223;BME280;56514;51.816;-0.026;2023-03-26T02:38:13;99567.00;;;10.55;68.88
69223;BME280;56514;51.816;-0.026;2023-03-26T02:40:58;99566.03;;;10.56;69.01
69223;BME280;56514;51.816;-0.026;2023-03-26T02:43:44;99568.66;;;10.56;68.98
69223;BME280;56514;51.816;-0.026;2023-03-26T02:46:29;99571.03;;;10.59;68.93
69223;BME280;56514;51.816;-0.026;2023-03-26T02:49:14;99558.44;;;10.63;69.19
69223;BME280;56514;51.816;-0.026;2023-03-26T02:52:00;99561.50;;;10.68;68.91
69223;BME280;56514;51.816;-0.026;2023-03-26T02:54:45;99542.22;;;10.68;69.23
69223;BME280;56514;51.816;-0.026;2023-03-26T02:57:30;99549.72;;;10.72;69.15
69223;BME280;56514;51.816;-0.026;2023-03-26T03:00:15;99543.47;;;10.73;69.17
69223;BME280;56514;51.816;-0.026;2023-03-26T03:03:01;99539.03;;;10.74;69.06
69223;BME280;56514;51.816;-0.026;2023-03-26T03:05:48;99537.38;;;10.73;69.24
69223;BME280;56514;51.816;-0.026;2023-03-26T03:08:34;99536.41;;;10.74;69.31
69223;BME280;56514;51.816;-0.026;2023-03-26T03:11:22;99527.38;;;10.76;69.23
69223;BME280;56514;51.816;-0.026;2023-03-26T03:14:09;99527.09;;;10.79;69.54
69223;BME280;56514;51.816;-0.026;2023-03-26T03:16:57;99526.16;;;10.80;69.65
69223;BME280;56514;51.816;-0.026;2023-03-26T03:19:42;99526.28;;;10.79;69.76
69223;BME280;56514;51.816;-0.026;2023-03-26T03:22:26;99518.50;;;10.77;70.02
69223;BME280;56514;51.816;-0.026;2023-03-26T03:25:11;99519.19;;;10.79;69.79
69223;BME280;56514;51.816;-0.026;2023-03-26T03:28:01;99515.59;;;10.80;69.76
69223;BME280;56514;51.816;-0.026;2023-03-26T03:30:46;99508.63;;;10.79;69.99
69223;BME280;56514;51.816;-0.026;2023-03-26T03:33:33;99506.13;;;10.78;69.80
69223;BME280;56514;51.816;-0.026;2023-03-26T03:36:20;99510.59;;;10.77;69.99
69223;BME280;56514;51.816;-0.026;2023-03-26T03:39:06;99502.56;;;10.79;70.33
69223;BME280;56514;51.816;-0.026;2023-03-26T03:41:51;99503.38;;;10.79;70.29
69223;BME280;56514;51.816;-0.026;2023-03-26T03:44:35;99500.59;;;10.81;70.33
69223;BME280;56514;51.816;-0.026;2023-03-26T03:47:20;99498.78;;;10.81;70.34
69223;BME280;56514;51.816;-0.026;2023-03-26T03:50:07;99504.91;;;10.82;70.64
69223;BME280;56514;51.816;-0.026;2023-03-26T03:52:54;99501.31;;;10.83;70.43
69223;BME280;56514;51.816;-0.026;2023-03-26T03:55:40;99497.81;;;10.82;70.58
69223;BME280;56514;51.816;-0.026;2023-03-26T03:58:25;99497.69;;;10.84;70.50
69223;BME280;56514;51.816;-0.026;2023-03-26T04:01:11;99491.31;;;10.86;70.41
69223;BME280;56514;51.816;-0.026;2023-03-26T04:03:57;99478.00;;;10.88;70.60
69223;BME280;56514;51.816;-0.026;2023-03-26T04:06:42;99492.97;;;10.87;70.54
69223;BME280;56514;51.816;-0.026;2023-03-26T04:09:27;99488.69;;;10.86;70.53
69223;BME280;56514;51.816;-0.026;2023-03-26T04:12:15;99487.69;;;10.87;70.47
69223;BME280;56514;51.816;-0.026;2023-03-26T04:15:01;99481.31;;;10.90;71.04
69223;BME280;56514;51.816;-0.026;2023-03-26T04:17:46;99486.44;;;10.91;70.60
69223;BME280;56514;51.816;-0.026;2023-03-26T04:20:31;99484.94;;;10.89;70.58
69223;BME280;56514;51.816;-0.026;2023-03-26T04:23:17;99483.00;;;10.91;70.75
69223;BME280;56514;51.816;-0.026;2023-03-26T04:26:07;99487.44;;;10.90;70.60
69223;BME280;56514;51.816;-0.026;2023-03-26T04:29:02;99486.44;;;10.91;70.61
69223;BME280;56514;51.816;-0.026;2023-03-26T04:31:49;99483.94;;;10.90;70.98
69223;BME280;56514;51.816;-0.026;2023-03-26T04:34:37;99478.00;;;10.88;70.87
69223;BME280;56514;51.816;-0.026;2023-03-26T04:37:26;99477.41;;;10.84;70.72
69223;BME280;56514;51.816;-0.026;2023-03-26T04:40:19;99473.13;;;10.83;71.04
69223;BME280;56514;51.816;-0.026;2023-03-26T04:43:04;99474.06;;;10.82;71.00
69223;BME280;56514;51.816;-0.026;2023-03-26T04:45:49;99471.31;;;10.84;71.13
69223;BME280;56514;51.816;-0.026;2023-03-26T04:48:36;99469.66;;;10.83;70.89
69223;BME280;56514;51.816;-0.026;2023-03-26T04:51:27;99467.84;;;10.83;70.96
69223;BME280;56514;51.816;-0.026;2023-03-26T04:54:21;99471.31;;;10.84;71.29
69223;BME280;56514;51.816;-0.026;2023-03-26T04:57:20;99471.31;;;10.84;71.01
69223;BME280;56514;51.816;-0.026;2023-03-26T05:00:08;99476.31;;;10.87;71.18
69223;BME280;56514;51.816;-0.026;2023-03-26T05:02:58;99478.81;;;10.88;71.31
69223;BME280;56514;51.816;-0.026;2023-03-26T05:05:45;99477.72;;;10.91;71.30
69223;BME280;56514;51.816;-0.026;2023-03-26T05:08:29;99479.38;;;10.92;71.16
69223;BME280;56514;51.816;-0.026;2023-03-26T05:11:18;99463.81;;;10.89;71.10
69223;BME280;56514;51.816;-0.026;2023-03-26T05:14:06;99474.94;;;10.92;71.01
69223;BME280;56514;51.816;-0.026;2023-03-26T05:16:51;99480.38;;;10.91;71.38
69223;BME280;56514;51.816;-0.026;2023-03-26T05:19:36;99480.50;;;10.89;71.57
69223;BME280;56514;51.816;-0.026;2023-03-26T05:22:22;99480.50;;;10.89;71.37
69223;BME280;56514;51.816;-0.026;2023-03-26T05:25:10;99480.38;;;10.91;71.33
69223;BME280;56514;51.816;-0.026;2023-03-26T05:27:56;99484.78;;;10.90;71.33
69223;BME280;56514;51.816;-0.026;2023-03-26T05:30:41;99472.59;;;10.89;71.68
69223;BME280;56514;51.816;-0.026;2023-03-26T05:33:27;99470.91;;;10.88;71.49
69223;BME280;56514;51.816;-0.026;2023-03-26T05:36:12;99475.50;;;10.86;71.45
69223;BME280;56514;51.816;-0.026;2023-03-26T05:38:58;99486.72;;;10.88;71.41
69223;BME280;56514;51.816;-0.026;2023-03-26T05:41:47;99482.69;;;10.84;71.74
69223;BME280;56514;51.816;-0.026;2023-03-26T05:44:33;99484.63;;;10.82;71.66
69223;BME280;56514;51.816;-0.026;2023-03-26T05:47:19;99486.44;;;10.82;71.92
69223;BME280;56514;51.816;-0.026;2023-03-26T05:50:05;99489.91;;;10.82;72.15
69223;BME280;56514;51.816;-0.026;2023-03-26T05:52:50;99487.28;;;10.82;72.10
69223;BME280;56514;51.816;-0.026;2023-03-26T05:55:36;99485.03;;;10.78;72.42
69223;BME280;56514;51.816;-0.026;2023-03-26T05:58:21;99482.53;;;10.67;72.55
69223;BME280;56514;51.816;-0.026;2023-03-26T06:01:10;99474.16;;;10.52;73.44
69223;BME280;56514;51.816;-0.026;2023-03-26T06:04:00;99477.28;;;10.36;73.73
69223;BME280;56514;51.816;-0.026;2023-03-26T06:06:45;99476.28;;;10.28;74.09
69223;BME280;56514;51.816;-0.026;2023-03-26T06:09:30;99488.44;;;10.19;74.40
69223;BME280;56514;51.816;-0.026;2023-03-26T06:12:15;99485.50;;;10.13;74.51
69223;BME280;56514;51.816;-0.026;2023-03-26T06:15:00;99483.81;;;10.12;75.03
69223;BME280;56514;51.816;-0.026;2023-03-26T06:17:45;99486.41;;;10.02;74.75
69223;BME280;56514;51.816;-0.026;2023-03-26T06:20:30;99488.72;;;9.96;75.10
69223;BME280;56514;51.816;-0.026;2023-03-26T06:23:16;99489.09;;;9.91;75.57
69223;BME280;56514;51.816;-0.026;2023-03-26T06:26:01;99494.50;;;9.90;75.42
69223;BME280;56514;51.816;-0.026;2023-03-26T06:28:46;99496.53;;;9.86;75.64
69223;BME280;56514;51.816;-0.026;2023-03-26T06:31:31;99492.63;;;9.81;75.77
69223;BME280;56514;51.816;-0.026;2023-03-26T06:34:16;99495.53;;;9.78;75.89
69223;BME280;56514;51.816;-0.026;2023-03-26T06:37:02;99502.72;;;9.76;75.58
69223;BME280;56514;51.816;-0.026;2023-03-26T06:39:47;99505.09;;;9.79;75.75
69223;BME280;56514;51.816;-0.026;2023-03-26T06:42:32;99511.34;;;9.78;75.93
69223;BME280;56514;51.816;-0.026;2023-03-26T06:45:17;99500.78;;;9.78;76.34
69223;BME280;56514;51.816;-0.026;2023-03-26T06:48:03;99520.03;;;9.78;75.85
69223;BME280;56514;51.816;-0.026;2023-03-26T06:50:48;99516.34;;;9.81;75.94
69223;BME280;56514;51.816;-0.026;2023-03-26T06:53:34;99518.84;;;9.82;76.19
69223;BME280;56514;51.816;-0.026;2023-03-26T06:56:20;99526.34;;;9.87;75.55
69223;BME280;56514;51.816;-0.026;2023-03-26T06:59:05;99529.44;;;9.92;75.60
69223;BME280;56514;51.816;-0.026;2023-03-26T07:01:50;99532.13;;;10.01;75.57
69223;BME280;56514;51.816;-0.026;2023-03-26T07:04:36;99533.47;;;10.07;75.31
69223;BME280;56514;51.816;-0.026;2023-03-26T07:07:22;99546.25;;;10.11;74.92
69223;BME280;56514;51.816;-0.026;2023-03-26T07:10:08;99550.16;;;10.17;75.07
69223;BME280;56514;51.816;-0.026;2023-03-26T07:12:54;99569.03;;;10.22;74.67
69223;BME280;56514;51.816;-0.026;2023-03-26T07:15:42;99565.03;;;10.27;74.85
69223;BME280;56514;51.816;-0.026;2023-03-26T07:18:27;99570.91;;;10.31;74.51
69223;BME280;56514;51.816;-0.026;2023-03-26T07:21:12;99577.31;;;10.38;74.54
69223;BME280;56514;51.816;-0.026;2023-03-26T07:23:58;99586.66;;;10.42;74.30
69223;BME280;56514;51.816;-0.026;2023-03-26T07:26:49;99585.16;;;10.49;74.43
69223;BME280;56514;51.816;-0.026;2023-03-26T07:29:48;99583.91;;;10.53;74.32
69223;BME280;56514;51.816;-0.026;2023-03-26T07:38:45;99610.31;;;10.62;73.70
69223;BME280;56514;51.816;-0.026;2023-03-26T07:41:50;99598.66;;;10.65;73.55
69223;BME280;56514;51.816;-0.026;2023-03-26T07:45:09;99603.00;;;10.66;73.04
69223;BME280;56514;51.816;-0.026;2023-03-26T07:47:55;99606.72;;;10.63;73.36
69223;BME280;56514;51.816;-0.026;2023-03-26T07:50:40;99620.34;;;10.68;73.30
69223;BME280;56514;51.816;-0.026;2023-03-26T07:53:26;99622.72;;;10.72;73.41
69223;BME280;56514;51.816;-0.026;2023-03-26T07:56:16;99628.97;;;10.71;72.86
69223;BME280;56514;51.816;-0.026;2023-03-26T08:05:37;99634.84;;;10.74;72.72
69223;BME280;56514;51.816;-0.026;2023-03-26T08:08:43;99632.47;;;10.71;72.88
69223;BME280;56514;51.816;-0.026;2023-03-26T08:20:48;99646.53;;;10.60;73.87
69223;BME280;56514;51.816;-0.026;2023-03-26T08:29:58;99663.25;;;11.01;74.27
69223;BME280;56514;51.816;-0.026;2023-03-26T08:32:53;99668.00;;;11.07;73.91
69223;BME280;56514;51.816;-0.026;2023-03-26T08:35:40;99663.72;;;11.06;73.74
69223;BME280;56514;51.816;-0.026;2023-03-26T08:38:28;99670.00;;;11.14;73.88
69223;BME280;56514;51.816;-0.026;2023-03-26T08:51:08;99702.19;;;10.78;74.24
69223;BME280;56514;51.816;-0.026;2023-03-26T08:54:13;99702.56;;;10.74;74.83
69223;BME280;56514;51.816;-0.026;2023-03-26T09:17:02;99737.06;;;11.62;74.23
69223;BME280;56514;51.816;-0.026;2023-03-26T09:35:49;99756.78;;;12.46;70.50
69223;BME280;56514;51.816;-0.026;2023-03-26T09:38:51;99764.88;;;12.54;70.07
69223;BME280;56514;51.816;-0.026;2023-03-26T09:41:42;99768.59;;;12.51;69.98
69223;BME280;56514;51.816;-0.026;2023-03-26T09:45:48;99772.81;;;12.54;69.72
69223;BME280;56514;51.816;-0.026;2023-03-26T09:51:19;99797.13;;;12.28;70.66
69223;BME280;56514;51.816;-0.026;2023-03-26T09:57:28;99805.88;;;12.19;71.02
69223;BME280;56514;51.816;-0.026;2023-03-26T10:04:54;99821.88;;;12.18;71.44
69223;BME280;56514;51.816;-0.026;2023-03-26T10:23:34;99871.53;;;12.14;71.22
69223;BME280;56514;51.816;-0.026;2023-03-26T10:29:50;99888.19;;;11.96;71.30
69223;BME280;56514;51.816;-0.026;2023-03-26T11:00:18;99972.38;;;12.00;71.97
69223;BME280;56514;51.816;-0.026;2023-03-26T11:12:12;100003.84;;;13.22;67.68
69223;BME280;56514;51.816;-0.026;2023-03-26T11:15:23;100016.38;;;13.20;67.57
69223;BME280;56514;51.816;-0.026;2023-03-26T11:18:42;100021.91;;;13.08;66.86
69223;BME280;56514;51.816;-0.026;2023-03-26T11:30:54;100050.78;;;12.71;66.19
69223;BME280;56514;51.816;-0.026;2023-03-26T11:33:46;100055.66;;;12.66;66.65
69223;BME280;56514;51.816;-0.026;2023-03-26T11:36:35;100071.97;;;12.81;66.56
69223;BME280;56514;51.816;-0.026;2023-03-26T11:39:29;100071.28;;;12.79;66.40
69223;BME280;56514;51.816;-0.026;2023-03-26T11:42:22;100078.81;;;12.83;66.37
69223;BME280;56514;51.816;-0.026;2023-03-26T11:45:33;100077.44;;;12.89;66.96
69223;BME280;56514;51.816;-0.026;2023-03-26T11:49:00;100092.19;;;13.12;66.85
69223;BME280;56514;51.816;-0.026;2023-03-26T11:59:45;100130.13;;;13.22;64.60
69223;BME280;56514;51.816;-0.026;2023-03-26T12:03:02;100135.72;;;13.28;64.75
69223;BME280;56514;51.816;-0.026;2023-03-26T12:06:01;100143.59;;;13.09;63.15
69223;BME280;56514;51.816;-0.026;2023-03-26T12:08:56;100153.44;;;12.77;63.21
69223;BME280;56514;51.816;-0.026;2023-03-26T12:12:40;100169.44;;;12.96;62.41
69223;BME280;56514;51.816;-0.026;2023-03-26T12:19:23;100176.06;;;12.91;61.83
69223;BME280;56514;51.816;-0.026;2023-03-26T12:26:04;100191.53;;;13.06;62.25
69223;BME280;56514;51.816;-0.026;2023-03-26T12:29:18;100200.69;;;13.32;62.30
69223;BME280;56514;51.816;-0.026;2023-03-26T12:32:29;100203.06;;;13.35;62.03
69223;BME280;56514;51.816;-0.026;2023-03-26T12:44:19;100242.00;;;12.32;61.47
69223;BME280;56514;51.816;-0.026;2023-03-26T12:47:36;100249.94;;;11.89;62.38
69223;BME280;56514;51.816;-0.026;2023-03-26T12:50:44;100255.38;;;11.66;63.55
69223;BME280;56514;51.816;-0.026;2023-03-26T13:23:52;100294.66;;;13.08;59.27
69223;BME280;56514;51.816;-0.026;2023-03-26T13:37:01;100336.56;;;12.08;58.08
69223;BME280;56514;51.816;-0.026;2023-03-26T13:46:30;100359.28;;;11.66;59.87
69223;BME280;56514;51.816;-0.026;2023-03-26T13:52:13;100367.19;;;12.10;58.73
69223;BME280;56514;51.816;-0.026;2023-03-26T14:01:14;100366.00;;;14.20;54.69
69223;BME280;56514;51.816;-0.026;2023-03-26T14:04:17;100378.19;;;15.10;52.19
69223;BME280;56514;51.816;-0.026;2023-03-26T14:07:11;100387.50;;;14.57;49.78
69223;BME280;56514;51.816;-0.026;2023-03-26T14:12:55;100400.84;;;12.94;52.96
69223;BME280;56514;51.816;-0.026;2023-03-26T14:15:53;100409.03;;;12.59;53.44
69223;BME280;56514;51.816;-0.026;2023-03-26T14:22:26;100411.53;;;12.72;52.87
69223;BME280;56514;51.816;-0.026;2023-03-26T14:34:29;100448.72;;;13.13;53.00
69223;BME280;56514;51.816;-0.026;2023-03-26T14:37:35;100446.69;;;13.37;51.05
69223;BME280;56514;51.816;-0.026;2023-03-26T14:41:39;100462.09;;;13.11;51.04
69223;BME280;56514;51.816;-0.026;2023-03-26T14:44:12;100461.28;;;13.31;51.50
69223;BME280;56514;51.816;-0.026;2023-03-26T14:47:14;100473.28;;;13.35;51.03
69223;BME280;56514;51.816;-0.026;2023-03-26T14:50:23;100473.09;;;13.27;50.95
69223;BME280;56514;51.816;-0.026;2023-03-26T14:53:27;100480.38;;;13.14;51.50
69223;BME280;56514;51.816;-0.026;2023-03-26T14:56:41;100484.84;;;13.03;51.10
69223;BME280;56514;51.816;-0.026;2023-03-26T15:08:50;100526.19;;;12.17;51.44
69223;BME280;56514;51.816;-0.026;2023-03-26T15:18:26;100539.25;;;11.27;53.50
69223;BME280;56514;51.816;-0.026;2023-03-26T15:55:30;100625.66;;;10.64;53.11
69223;BME280;56514;51.816;-0.026;2023-03-26T16:02:12;100639.16;;;10.47;53.15
69223;BME280;56514;51.816;-0.026;2023-03-26T16:08:37;100651.38;;;10.60;53.42
69223;BME280;56514;51.816;-0.026;2023-03-26T16:17:26;100661.88;;;11.23;51.99
69223;BME280;56514;51.816;-0.026;2023-03-26T16:20:33;100667.75;;;11.39;51.78
69223;BME280;56514;51.816;-0.026;2023-03-26T16:23:23;100683.22;;;11.56;51.79
69223;BME280;56514;51.816;-0.026;2023-03-26T16:26:14;100689.22;;;11.58;51.68
69223;BME280;56514;51.816;-0.026;2023-03-26T16:32:23;100700.47;;;11.49;49.52
69223;BME280;56514;51.816;-0.026;2023-03-26T16:38:09;100721.13;;;10.94;50.31
69223;BME280;56514;51.816;-0.026;2023-03-26T16:41:00;100718.31;;;10.72;50.16
69223;BME280;56514;51.816;-0.026;2023-03-26T16:43:54;100725.03;;;10.63;51.79
69223;BME280;56514;51.816;-0.026;2023-03-26T16:46:51;100724.44;;;10.60;51.41
69223;BME280;56514;51.816;-0.026;2023-03-26T16:53:04;100737.84;;;10.70;52.00
69223;BME280;56514;51.816;-0.026;2023-03-26T17:00:00;100761.66;;;11.43;51.44
69223;BME280;56514;51.816;-0.026;2023-03-26T17:05:37;100764.94;;;11.47;51.33
69223;BME280;56514;51.816;-0.026;2023-03-26T17:08:58;100785.03;;;11.24;51.79
69223;BME280;56514;51.816;-0.026;2023-03-26T17:20:50;100803.53;;;10.21;54.10
69223;BME280;56514;51.816;-0.026;2023-03-26T17:29:59;100838.13;;;10.02;54.91
69223;BME280;56514;51.816;-0.026;2023-03-26T17:33:19;100850.56;;;9.86;55.09
69223;BME280;56514;51.816;-0.026;2023-03-26T17:39:16;100860.63;;;9.80;56.67
69223;BME280;56514;51.816;-0.026;2023-03-26T17:42:29;100859.91;;;9.78;56.83
69223;BME280;56514;51.816;-0.026;2023-03-26T17:45:20;100866.75;;;9.80;56.75
69223;BME280;56514;51.816;-0.026;2023-03-26T17:48:19;100876.53;;;9.78;57.02
69223;BME280;56514;51.816;-0.026;2023-03-26T17:54:26;100889.72;;;9.64;56.46
69223;BME280;56514;51.816;-0.026;2023-03-26T18:00:15;100910.59;;;9.39;57.07
69223;BME280;56514;51.816;-0.026;2023-03-26T18:03:26;100918.34;;;9.27;56.80
69223;BME280;56514;51.816;-0.026;2023-03-26T18:06:17;100929.06;;;9.24;57.15
69223;BME280;56514;51.816;-0.026;2023-03-26T18:18:15;100955.88;;;9.01;58.27
69223;BME280;56514;51.816;-0.026;2023-03-26T18:21:04;100966.41;;;9.01;57.89
69223;BME280;56514;51.816;-0.026;2023-03-26T18:23:53;100971.84;;;8.98;57.90
69223;BME280;56514;51.816;-0.026;2023-03-26T18:26:44;100974.09;;;8.89;58.31
69223;BME280;56514;51.816;-0.026;2023-03-26T18:29:34;100978.50;;;8.89;58.09
69223;BME280;56514;51.816;-0.026;2023-03-26T18:32:21;100985.69;;;8.85;58.56
69223;BME280;56514;51.816;-0.026;2023-03-26T18:35:17;100992.84;;;8.83;58.90
69223;BME280;56514;51.816;-0.026;2023-03-26T18:38:04;101004.28;;;8.82;58.85
69223;BME280;56514;51.816;-0.026;2023-03-26T18:40:52;101004.53;;;8.78;59.15
69223;BME280;56514;51.816;-0.026;2023-03-26T18:43:41;101012.53;;;8.76;59.19
69223;BME280;56514;51.816;-0.026;2023-03-26T18:46:27;101007.44;;;8.73;59.21
69223;BME280;56514;51.816;-0.026;2023-03-26T18:49:14;101015.41;;;8.72;59.14
69223;BME280;56514;51.816;-0.026;2023-03-26T18:52:00;101021.53;;;8.72;58.66
69223;BME280;56514;51.816;-0.026;2023-03-26T18:54:49;101029.75;;;8.66;58.82
69223;BME280;56514;51.816;-0.026;2023-03-26T18:57:40;101035.94;;;8.65;58.12
69223;BME280;56514;51.816;-0.026;2023-03-26T19:00:27;101037.81;;;8.63;58.27
69223;BME280;56514;51.816;-0.026;2023-03-26T19:03:15;101054.75;;;8.58;58.20
69223;BME280;56514;51.816;-0.026;2023-03-26T19:06:06;101061.81;;;8.57;58.06
69223;BME280;56514;51.816;-0.026;2023-03-26T19:08:54;101054.84;;;8.56;57.73
69223;BME280;56514;51.816;-0.026;2023-03-26T19:11:40;101062.22;;;8.50;58.12
69223;BME280;56514;51.816;-0.026;2023-03-26T19:14:25;101063.22;;;8.47;58.38
69223;BME280;56514;51.816;-0.026;2023-03-26T19:17:12;101060.84;;;8.43;58.81
69223;BME280;56514;51.816;-0.026;2023-03-26T19:19:57;101071.44;;;8.41;58.34
69223;BME280;56514;51.816;-0.026;2023-03-26T19:22:45;101078.41;;;8.42;59.10
69223;BME280;56514;51.816;-0.026;2023-03-26T19:25:37;101083.69;;;8.42;58.84
69223;BME280;56514;51.816;-0.026;2023-03-26T19:28:26;101093.50;;;8.39;58.96
69223;BME280;56514;51.816;-0.026;2023-03-26T19:31:33;101091.72;;;8.39;59.50
69223;BME280;56514;51.816;-0.026;2023-03-26T19:34:31;101093.66;;;8.36;59.42
69223;BME280;56514;51.816;-0.026;2023-03-26T19:37:27;101102.94;;;8.26;59.16
69223;BME280;56514;51.816;-0.026;2023-03-26T19:40:19;101117.03;;;8.25;59.86
69223;BME280;56514;51.816;-0.026;2023-03-26T19:43:05;101120.66;;;8.22;59.76
69223;BME280;56514;51.816;-0.026;2023-03-26T19:45:51;101132.78;;;8.25;59.81
69223;BME280;56514;51.816;-0.026;2023-03-26T19:48:37;101125.13;;;8.20;59.59
69223;BME280;56514;51.816;-0.026;2023-03-26T19:51:33;101133.00;;;8.20;59.81
69223;BME280;56514;51.816;-0.026;2023-03-26T19:54:19;101135.50;;;8.23;59.46
69223;BME280;56514;51.816;-0.026;2023-03-26T19:57:04;101141.91;;;8.18;59.85
69223;BME280;56514;51.816;-0.026;2023-03-26T19:59:50;101148.28;;;8.12;59.51
69223;BME280;56514;51.816;-0.026;2023-03-26T20:02:40;101159.59;;;8.14;59.75
69223;BME280;56514;51.816;-0.026;2023-03-26T20:05:30;101154.34;;;8.14;59.71
69223;BME280;56514;51.816;-0.026;2023-03-26T20:08:16;101159.50;;;8.16;59.93
69223;BME280;56514;51.816;-0.026;2023-03-26T20:11:02;101160.69;;;8.10;59.51
69223;BME280;56514;51.816;-0.026;2023-03-26T20:13:49;101162.38;;;8.11;59.35
69223;BME280;56514;51.816;-0.026;2023-03-26T20:16:41;101169.47;;;8.09;60.14
69223;BME280;56514;51.816;-0.026;2023-03-26T20:19:27;101172.97;;;8.10;59.90
69223;BME280;56514;51.816;-0.026;2023-03-26T20:22:17;101185.25;;;8.09;59.95
69223;BME280;56514;51.816;-0.026;2023-03-26T20:25:25;101188.97;;;8.05;60.30
69223;BME280;56514;51.816;-0.026;2023-03-26T20:28:11;101195.06;;;8.06;60.53
69223;BME280;56514;51.816;-0.026;2023-03-26T20:30:57;101202.31;;;8.01;59.88
69223;BME280;56514;51.816;-0.026;2023-03-26T20:33:42;101207.50;;;8.02;60.16
69223;BME280;56514;51.816;-0.026;2023-03-26T20:36:28;101217.06;;;8.03;60.39
69223;BME280;56514;51.816;-0.026;2023-03-26T20:39:13;101230.13;;;8.05;60.30
69223;BME280;56514;51.816;-0.026;2023-03-26T20:41:58;101244.66;;;7.95;60.34
69223;BME280;56514;51.816;-0.026;2023-03-26T20:44:43;101250.78;;;7.95;60.31
69223;BME280;56514;51.816;-0.026;2023-03-26T20:47:29;101244.59;;;7.96;60.67
69223;BME280;56514;51.816;-0.026;2023-03-26T20:50:15;101247.22;;;7.96;60.12
69223;BME280;56514;51.816;-0.026;2023-03-26T20:53:01;101244.66;;;7.95;60.22
69223;BME280;56514;51.816;-0.026;2023-03-26T20:55:46;101245.78;;;7.89;60.31
69223;BME280;56514;51.816;-0.026;2023-03-26T20:58:35;101241.56;;;7.87;60.19
69223;BME280;56514;51.816;-0.026;2023-03-26T21:01:20;101249.66;;;7.82;60.20
69223;BME280;56514;51.816;-0.026;2023-03-26T21:04:06;101249.94;;;7.76;60.38
69223;BME280;56514;51.816;-0.026;2023-03-26T21:06:54;101250.81;;;7.77;60.41
69223;BME280;56514;51.816;-0.026;2023-03-26T21:09:40;101254.13;;;7.80;59.90
69223;BME280;56514;51.816;-0.026;2023-03-26T21:12:33;101259.53;;;7.77;60.64